KAL782 RJFF-RKSI
Flight info
| Callsign | KAL782 |
|---|---|
| Flight time | 1h 21m |
| Altitude | 32000 |
| Route | DGC G339 BEETL Y208 INVOK Z91 PSN Y782 BITUX Z53 BASEM Y685 GUKDO GUKDO2H |
| Aircraft | B738/M-SDE2E3FGHIRWXY/LB1 |
Departure
| Time | 2026-05-05 00:06 |
|---|---|
| Airport | Fukuoka Airport (RJFF) |
Arrival
| Time | 2026-05-05 01:27 |
|---|---|
| Airport | Incheon International Airport (RKSI) |
| Time | Latitude | Longitude | Altitude | Speed | Heading |
|---|---|---|---|---|---|
| 2026-05-04 23:39 | 33.58628 | 130.44458 | 31 ft | 0 kts | 241° |
| 2026-05-04 23:58 | 33.58637 | 130.44477 | 31 ft | 4 kts | 241° |
| 2026-05-04 23:58 | 33.58650 | 130.44506 | 32 ft | 4 kts | 241° |
| 2026-05-04 23:59 | 33.58663 | 130.44534 | 32 ft | 4 kts | 241° |
| 2026-05-04 23:59 | 33.58676 | 130.44562 | 32 ft | 4 kts | 241° |
| 2026-05-04 23:59 | 33.58688 | 130.44587 | 31 ft | 4 kts | 242° |
| 2026-05-04 23:59 | 33.58696 | 130.44615 | 31 ft | 4 kts | 284° |
| 2026-05-05 00:00 | 33.58682 | 130.44636 | 36 ft | 4 kts | 340° |
| 2026-05-05 00:00 | 33.58674 | 130.44639 | 34 ft | 0 kts | 346° |
| 2026-05-05 00:01 | 33.58704 | 130.44614 | 34 ft | 15 kts | 325° |
| 2026-05-05 00:01 | 33.58800 | 130.44544 | 30 ft | 17 kts | 331° |
| 2026-05-05 00:01 | 33.58901 | 130.44477 | 31 ft | 16 kts | 330° |
| 2026-05-05 00:01 | 33.58998 | 130.44412 | 29 ft | 17 kts | 332° |
| 2026-05-05 00:02 | 33.59101 | 130.44345 | 29 ft | 17 kts | 330° |
| 2026-05-05 00:02 | 33.59199 | 130.44279 | 30 ft | 16 kts | 330° |
| 2026-05-05 00:02 | 33.59297 | 130.44214 | 28 ft | 18 kts | 330° |
| 2026-05-05 00:02 | 33.59408 | 130.44139 | 29 ft | 18 kts | 331° |
| 2026-05-05 00:03 | 33.59495 | 130.44084 | 28 ft | 5 kts | 339° |
| 2026-05-05 00:03 | 33.59500 | 130.44081 | 28 ft | 0 kts | 335° |
| 2026-05-05 00:04 | 33.59501 | 130.44080 | 28 ft | 1 kts | 335° |
| 2026-05-05 00:04 | 33.59554 | 130.44083 | 27 ft | 12 kts | 29° |
| 2026-05-05 00:04 | 33.59554 | 130.44166 | 28 ft | 11 kts | 150° |
| 2026-05-05 00:05 | 33.59524 | 130.44185 | 29 ft | 1 kts | 150° |
| 2026-05-05 00:05 | 33.59457 | 130.44230 | 29 ft | 43 kts | 150° |
| 2026-05-05 00:05 | 33.58902 | 130.44606 | 29 ft | 137 kts | 150° |
| 2026-05-05 00:05 | 33.57927 | 130.45273 | 586 ft | 175 kts | 150° |
| 2026-05-05 00:06 | 33.56803 | 130.46042 | 1466 ft | 198 kts | 150° |
| 2026-05-05 00:06 | 33.55543 | 130.46899 | 2383 ft | 211 kts | 152° |
| 2026-05-05 00:06 | 33.54212 | 130.47801 | 2906 ft | 235 kts | 150° |
| 2026-05-05 00:06 | 33.52621 | 130.48551 | 3596 ft | 254 kts | 176° |
| 2026-05-05 00:07 | 33.50927 | 130.48058 | 4749 ft | 258 kts | 211° |
| 2026-05-05 00:07 | 33.49662 | 130.46524 | 5853 ft | 265 kts | 237° |
| 2026-05-05 00:07 | 33.49086 | 130.44427 | 6856 ft | 271 kts | 267° |
| 2026-05-05 00:07 | 33.49403 | 130.42195 | 7908 ft | 274 kts | 291° |
| 2026-05-05 00:08 | 33.50436 | 130.40282 | 8954 ft | 279 kts | 314° |
| 2026-05-05 00:08 | 33.52069 | 130.38993 | 9915 ft | 287 kts | 339° |
| 2026-05-05 00:08 | 33.54069 | 130.38563 | 10627 ft | 304 kts | 356° |
| 2026-05-05 00:08 | 33.56300 | 130.38592 | 10858 ft | 335 kts | 1° |
| 2026-05-05 00:09 | 33.58732 | 130.38724 | 11059 ft | 362 kts | 1° |
| 2026-05-05 00:09 | 33.61336 | 130.38840 | 11247 ft | 386 kts | 0° |
| 2026-05-05 00:09 | 33.64066 | 130.38919 | 11678 ft | 399 kts | 359° |
| 2026-05-05 00:09 | 33.66807 | 130.38540 | 12330 ft | 402 kts | 344° |
| 2026-05-05 00:10 | 33.69384 | 130.37282 | 13118 ft | 402 kts | 329° |
| 2026-05-05 00:10 | 33.71662 | 130.35335 | 13842 ft | 404 kts | 320° |
| 2026-05-05 00:10 | 33.73864 | 130.33199 | 14473 ft | 408 kts | 319° |
| 2026-05-05 00:10 | 33.76075 | 130.31045 | 15132 ft | 411 kts | 319° |
| 2026-05-05 00:11 | 33.78310 | 130.28877 | 15813 ft | 413 kts | 319° |
| 2026-05-05 00:11 | 33.80549 | 130.26717 | 16471 ft | 416 kts | 319° |
| 2026-05-05 00:11 | 33.82828 | 130.24530 | 17121 ft | 419 kts | 319° |
| 2026-05-05 00:11 | 33.85126 | 130.22331 | 17713 ft | 423 kts | 319° |
| 2026-05-05 00:12 | 33.87443 | 130.20118 | 18318 ft | 427 kts | 319° |
| 2026-05-05 00:12 | 33.89775 | 130.17891 | 18878 ft | 429 kts | 319° |
| 2026-05-05 00:12 | 33.92117 | 130.15653 | 19413 ft | 431 kts | 319° |
| 2026-05-05 00:12 | 33.94486 | 130.13388 | 19896 ft | 436 kts | 319° |
| 2026-05-05 00:13 | 33.96868 | 130.11109 | 20388 ft | 439 kts | 318° |
| 2026-05-05 00:13 | 33.99267 | 130.08812 | 20942 ft | 440 kts | 318° |
| 2026-05-05 00:13 | 34.01646 | 130.06533 | 21455 ft | 442 kts | 318° |
| 2026-05-05 00:13 | 34.04066 | 130.04212 | 21925 ft | 445 kts | 318° |
| 2026-05-05 00:14 | 34.06495 | 130.01881 | 22392 ft | 448 kts | 318° |
| 2026-05-05 00:14 | 34.08794 | 129.99672 | 22767 ft | 451 kts | 318° |
| 2026-05-05 00:14 | 34.11249 | 129.97312 | 23186 ft | 454 kts | 317° |
| 2026-05-05 00:14 | 34.13726 | 129.94930 | 23626 ft | 456 kts | 317° |
| 2026-05-05 00:15 | 34.16202 | 129.92545 | 24003 ft | 457 kts | 317° |
| 2026-05-05 00:15 | 34.18681 | 129.90157 | 24347 ft | 459 kts | 317° |
| 2026-05-05 00:15 | 34.21188 | 129.87740 | 24698 ft | 461 kts | 317° |
| 2026-05-05 00:15 | 34.23665 | 129.85350 | 25023 ft | 462 kts | 317° |
| 2026-05-05 00:16 | 34.26185 | 129.82915 | 25314 ft | 465 kts | 317° |
| 2026-05-05 00:16 | 34.28727 | 129.80473 | 25614 ft | 468 kts | 318° |
| 2026-05-05 00:16 | 34.31289 | 129.78030 | 25929 ft | 469 kts | 318° |
| 2026-05-05 00:16 | 34.33850 | 129.75595 | 26333 ft | 467 kts | 318° |
| 2026-05-05 00:17 | 34.36398 | 129.73170 | 26818 ft | 464 kts | 317° |
| 2026-05-05 00:17 | 34.38935 | 129.70753 | 27335 ft | 461 kts | 317° |
| 2026-05-05 00:17 | 34.41452 | 129.68351 | 27823 ft | 459 kts | 317° |
| 2026-05-05 00:17 | 34.43959 | 129.65953 | 28292 ft | 458 kts | 317° |
| 2026-05-05 00:18 | 34.46448 | 129.63569 | 28789 ft | 456 kts | 317° |
| 2026-05-05 00:18 | 34.48929 | 129.61190 | 29295 ft | 453 kts | 316° |
| 2026-05-05 00:18 | 34.51397 | 129.58822 | 29818 ft | 451 kts | 316° |
| 2026-05-05 00:18 | 34.53850 | 129.56466 | 30319 ft | 449 kts | 316° |
| 2026-05-05 00:19 | 34.56297 | 129.54114 | 30711 ft | 448 kts | 316° |
| 2026-05-05 00:19 | 34.58746 | 129.51757 | 31086 ft | 448 kts | 316° |
| 2026-05-05 00:19 | 34.61185 | 129.49409 | 31456 ft | 447 kts | 316° |
| 2026-05-05 00:19 | 34.63619 | 129.47064 | 31828 ft | 447 kts | 316° |
| 2026-05-05 00:20 | 34.66052 | 129.44718 | 32175 ft | 447 kts | 316° |
| 2026-05-05 00:20 | 34.70910 | 129.40027 | 32183 ft | 450 kts | 316° |
| 2026-05-05 00:21 | 34.75787 | 129.35317 | 32182 ft | 445 kts | 315° |
| 2026-05-05 00:21 | 34.80638 | 129.30622 | 32193 ft | 445 kts | 316° |
| 2026-05-05 00:22 | 34.85487 | 129.25938 | 32193 ft | 445 kts | 316° |
| 2026-05-05 00:22 | 34.90300 | 129.21283 | 32198 ft | 446 kts | 316° |
| 2026-05-05 00:23 | 34.95169 | 129.16565 | 32189 ft | 446 kts | 316° |
| 2026-05-05 00:23 | 35.00022 | 129.11855 | 32198 ft | 446 kts | 316° |
| 2026-05-05 00:24 | 35.03963 | 129.08023 | 32191 ft | 446 kts | 316° |
| 2026-05-05 00:24 | 35.08817 | 129.03298 | 32189 ft | 446 kts | 316° |
| 2026-05-05 00:25 | 35.13623 | 128.99015 | 32168 ft | 453 kts | 326° |
| 2026-05-05 00:25 | 35.19292 | 128.95660 | 32206 ft | 456 kts | 329° |
| 2026-05-05 00:26 | 35.25051 | 128.92352 | 32188 ft | 456 kts | 329° |
| 2026-05-05 00:26 | 35.30785 | 128.88991 | 32188 ft | 457 kts | 329° |
| 2026-05-05 00:27 | 35.36472 | 128.85622 | 32186 ft | 457 kts | 329° |
| 2026-05-05 00:27 | 35.42191 | 128.82223 | 32174 ft | 457 kts | 329° |
| 2026-05-05 00:28 | 35.47915 | 128.78821 | 32182 ft | 457 kts | 329° |
| 2026-05-05 00:28 | 35.53638 | 128.75418 | 32184 ft | 456 kts | 329° |
| 2026-05-05 00:29 | 35.58394 | 128.72592 | 32186 ft | 456 kts | 329° |
| 2026-05-05 00:29 | 35.64118 | 128.69187 | 32176 ft | 456 kts | 329° |
| 2026-05-05 00:30 | 35.70742 | 128.65234 | 32194 ft | 456 kts | 330° |
| 2026-05-05 00:30 | 35.75504 | 128.62389 | 32175 ft | 456 kts | 329° |
| 2026-05-05 00:31 | 35.81099 | 128.58720 | 32164 ft | 452 kts | 321° |
| 2026-05-05 00:31 | 35.85745 | 128.53634 | 32172 ft | 446 kts | 311° |
| 2026-05-05 00:32 | 35.90167 | 128.48269 | 32181 ft | 446 kts | 311° |
| 2026-05-05 00:32 | 35.94614 | 128.42923 | 32172 ft | 446 kts | 312° |
| 2026-05-05 00:33 | 35.99074 | 128.37596 | 32164 ft | 446 kts | 312° |
| 2026-05-05 00:33 | 36.03529 | 128.32276 | 32169 ft | 447 kts | 312° |
| 2026-05-05 00:34 | 36.07996 | 128.26932 | 32166 ft | 446 kts | 312° |
| 2026-05-05 00:34 | 36.12433 | 128.21614 | 32153 ft | 447 kts | 312° |
| 2026-05-05 00:35 | 36.16892 | 128.16260 | 32170 ft | 447 kts | 313° |
| 2026-05-05 00:35 | 36.21356 | 128.10889 | 32158 ft | 448 kts | 313° |
| 2026-05-05 00:36 | 36.25937 | 128.05652 | 32134 ft | 452 kts | 322° |
| 2026-05-05 00:36 | 36.28695 | 128.03736 | 32168 ft | 457 kts | 333° |
| 2026-05-05 00:36 | 36.31707 | 128.02438 | 32151 ft | 463 kts | 343° |
| 2026-05-05 00:37 | 36.38145 | 128.01436 | 32163 ft | 467 kts | 351° |
| 2026-05-05 00:37 | 36.44595 | 128.00674 | 32151 ft | 467 kts | 351° |
| 2026-05-05 00:38 | 36.50918 | 127.99825 | 32144 ft | 467 kts | 350° |
| 2026-05-05 00:38 | 36.57346 | 127.98930 | 31937 ft | 459 kts | 350° |
| 2026-05-05 00:38 | 36.60509 | 127.98503 | 31207 ft | 455 kts | 351° |
| 2026-05-05 00:39 | 36.63595 | 127.98093 | 30579 ft | 446 kts | 351° |
| 2026-05-05 00:39 | 36.66688 | 127.97683 | 29893 ft | 436 kts | 351° |
| 2026-05-05 00:39 | 36.69670 | 127.97286 | 29168 ft | 426 kts | 351° |
| 2026-05-05 00:39 | 36.72563 | 127.96898 | 29005 ft | 411 kts | 351° |
| 2026-05-05 00:40 | 36.75440 | 127.96508 | 29020 ft | 421 kts | 352° |
| 2026-05-05 00:40 | 36.78357 | 127.96112 | 29040 ft | 432 kts | 352° |
| 2026-05-05 00:40 | 36.81403 | 127.95595 | 29033 ft | 440 kts | 344° |
| 2026-05-05 00:40 | 36.84247 | 127.94163 | 28893 ft | 448 kts | 327° |
| 2026-05-05 00:41 | 36.86608 | 127.91656 | 28629 ft | 458 kts | 309° |
| 2026-05-05 00:41 | 36.88441 | 127.88367 | 28485 ft | 464 kts | 302° |
| 2026-05-05 00:41 | 36.90211 | 127.84990 | 28522 ft | 465 kts | 303° |
| 2026-05-05 00:42 | 36.93886 | 127.78346 | 28518 ft | 463 kts | 304° |
| 2026-05-05 00:42 | 36.97613 | 127.71780 | 28222 ft | 464 kts | 304° |
| 2026-05-05 00:42 | 36.99487 | 127.68468 | 27964 ft | 466 kts | 304° |
| 2026-05-05 00:43 | 37.01344 | 127.65173 | 27539 ft | 464 kts | 304° |
| 2026-05-05 00:43 | 37.03200 | 127.61869 | 26463 ft | 464 kts | 304° |
| 2026-05-05 00:43 | 37.05037 | 127.58583 | 25678 ft | 457 kts | 304° |
| 2026-05-05 00:43 | 37.06843 | 127.55343 | 25006 ft | 449 kts | 304° |
| 2026-05-05 00:44 | 37.08620 | 127.52152 | 24333 ft | 442 kts | 304° |
| 2026-05-05 00:44 | 37.10364 | 127.49017 | 23652 ft | 437 kts | 304° |
| 2026-05-05 00:44 | 37.12091 | 127.45910 | 22895 ft | 432 kts | 304° |
| 2026-05-05 00:44 | 37.13776 | 127.42876 | 22228 ft | 424 kts | 304° |
| 2026-05-05 00:45 | 37.15479 | 127.39810 | 21582 ft | 424 kts | 304° |
| 2026-05-05 00:45 | 37.17162 | 127.36773 | 20933 ft | 436 kts | 304° |
| 2026-05-05 00:45 | 37.18893 | 127.33649 | 20259 ft | 433 kts | 304° |
| 2026-05-05 00:45 | 37.20597 | 127.30572 | 19593 ft | 425 kts | 304° |
| 2026-05-05 00:46 | 37.22268 | 127.27551 | 18957 ft | 418 kts | 304° |
| 2026-05-05 00:46 | 37.23917 | 127.24569 | 18286 ft | 413 kts | 304° |
| 2026-05-05 00:46 | 37.25543 | 127.21626 | 17583 ft | 408 kts | 304° |
| 2026-05-05 00:46 | 37.27146 | 127.18722 | 16941 ft | 403 kts | 304° |
| 2026-05-05 00:47 | 37.28735 | 127.15838 | 16304 ft | 400 kts | 303° |
| 2026-05-05 00:47 | 37.30315 | 127.12968 | 15679 ft | 398 kts | 303° |
| 2026-05-05 00:47 | 37.31910 | 127.10067 | 15042 ft | 407 kts | 303° |
| 2026-05-05 00:47 | 37.33526 | 127.07126 | 14375 ft | 409 kts | 303° |
| 2026-05-05 00:48 | 37.35137 | 127.04195 | 13884 ft | 399 kts | 303° |
| 2026-05-05 00:48 | 37.36677 | 127.01392 | 13653 ft | 382 kts | 303° |
| 2026-05-05 00:48 | 37.38083 | 126.98830 | 13488 ft | 367 kts | 303° |
| 2026-05-05 00:48 | 37.39507 | 126.96232 | 13206 ft | 355 kts | 303° |
| 2026-05-05 00:49 | 37.40868 | 126.93747 | 13048 ft | 342 kts | 302° |
| 2026-05-05 00:49 | 37.42269 | 126.91373 | 12620 ft | 338 kts | 309° |
| 2026-05-05 00:49 | 37.43839 | 126.89183 | 12157 ft | 336 kts | 311° |
| 2026-05-05 00:49 | 37.45445 | 126.87050 | 11698 ft | 334 kts | 312° |
| 2026-05-05 00:50 | 37.47033 | 126.84934 | 11239 ft | 332 kts | 311° |
| 2026-05-05 00:50 | 37.48602 | 126.82812 | 10780 ft | 330 kts | 311° |
| 2026-05-05 00:50 | 37.50148 | 126.80694 | 10328 ft | 328 kts | 310° |
| 2026-05-05 00:50 | 37.51688 | 126.78568 | 9876 ft | 326 kts | 310° |
| 2026-05-05 00:51 | 37.53171 | 126.76514 | 9887 ft | 309 kts | 310° |
| 2026-05-05 00:51 | 37.54584 | 126.74557 | 9817 ft | 295 kts | 310° |
| 2026-05-05 00:51 | 37.55923 | 126.72699 | 9728 ft | 284 kts | 310° |
| 2026-05-05 00:51 | 37.57222 | 126.70895 | 9661 ft | 273 kts | 310° |
| 2026-05-05 00:52 | 37.58471 | 126.69160 | 9527 ft | 265 kts | 310° |
| 2026-05-05 00:52 | 37.59738 | 126.67397 | 8813 ft | 274 kts | 310° |
| 2026-05-05 00:52 | 37.61025 | 126.65606 | 8171 ft | 276 kts | 309° |
| 2026-05-05 00:52 | 37.62320 | 126.63803 | 7537 ft | 278 kts | 309° |
| 2026-05-05 00:53 | 37.63373 | 126.61794 | 6891 ft | 275 kts | 290° |
| 2026-05-05 00:53 | 37.64057 | 126.59553 | 6267 ft | 273 kts | 288° |
| 2026-05-05 00:53 | 37.64743 | 126.57312 | 5608 ft | 273 kts | 288° |
| 2026-05-05 00:53 | 37.65436 | 126.55070 | 4941 ft | 274 kts | 288° |
| 2026-05-05 00:54 | 37.66138 | 126.52845 | 4331 ft | 271 kts | 289° |
| 2026-05-05 00:54 | 37.66824 | 126.50688 | 4106 ft | 256 kts | 288° |
| 2026-05-05 00:54 | 37.67296 | 126.48630 | 3991 ft | 234 kts | 274° |
| 2026-05-05 00:54 | 37.67464 | 126.46668 | 3977 ft | 216 kts | 272° |
| 2026-05-05 00:55 | 37.67636 | 126.44830 | 3977 ft | 211 kts | 273° |
| 2026-05-05 00:55 | 37.67816 | 126.42979 | 3948 ft | 211 kts | 274° |
| 2026-05-05 00:55 | 37.67991 | 126.41156 | 3824 ft | 217 kts | 271° |
| 2026-05-05 00:55 | 37.67826 | 126.39197 | 3368 ft | 221 kts | 255° |
| 2026-05-05 00:56 | 37.67556 | 126.37350 | 3204 ft | 211 kts | 257° |
| 2026-05-05 00:56 | 37.67294 | 126.35540 | 3094 ft | 209 kts | 251° |
| 2026-05-05 00:56 | 37.66541 | 126.34023 | 2989 ft | 203 kts | 222° |
| 2026-05-05 00:56 | 37.65467 | 126.32892 | 2976 ft | 199 kts | 218° |
| 2026-05-05 00:57 | 37.64376 | 126.31819 | 2977 ft | 200 kts | 216° |
| 2026-05-05 00:57 | 37.63100 | 126.31170 | 2966 ft | 203 kts | 181° |
| 2026-05-05 00:57 | 37.61756 | 126.31739 | 2988 ft | 208 kts | 154° |
| 2026-05-05 00:57 | 37.60482 | 126.32657 | 2794 ft | 216 kts | 151° |
| 2026-05-05 00:58 | 37.59271 | 126.33740 | 2650 ft | 209 kts | 148° |
| 2026-05-05 00:58 | 37.58114 | 126.34797 | 2398 ft | 202 kts | 149° |
| 2026-05-05 00:58 | 37.57001 | 126.35788 | 2145 ft | 189 kts | 149° |
| 2026-05-05 00:58 | 37.55976 | 126.36700 | 1901 ft | 171 kts | 149° |
| 2026-05-05 00:59 | 37.55051 | 126.37523 | 1687 ft | 155 kts | 149° |
| 2026-05-05 00:59 | 37.54201 | 126.38276 | 1503 ft | 148 kts | 149° |
| 2026-05-05 00:59 | 37.53365 | 126.39018 | 1304 ft | 146 kts | 148° |
| 2026-05-05 00:59 | 37.52534 | 126.39757 | 1114 ft | 146 kts | 148° |
| 2026-05-05 01:00 | 37.51714 | 126.40486 | 938 ft | 153 kts | 147° |
| 2026-05-05 01:00 | 37.50798 | 126.41342 | 1453 ft | 169 kts | 146° |
| 2026-05-05 01:00 | 37.49748 | 126.42407 | 1749 ft | 213 kts | 139° |
| 2026-05-05 01:00 | 37.49008 | 126.44146 | 2304 ft | 240 kts | 105° |
| 2026-05-05 01:01 | 37.49060 | 126.46295 | 3124 ft | 252 kts | 83° |
| 2026-05-05 01:01 | 37.49395 | 126.48559 | 3601 ft | 268 kts | 81° |
| 2026-05-05 01:01 | 37.49759 | 126.50885 | 3938 ft | 273 kts | 81° |
| 2026-05-05 01:01 | 37.50124 | 126.53250 | 3969 ft | 276 kts | 81° |
| 2026-05-05 01:02 | 37.50422 | 126.55630 | 3975 ft | 274 kts | 92° |
| 2026-05-05 01:02 | 37.50010 | 126.57914 | 3987 ft | 265 kts | 121° |
| 2026-05-05 01:02 | 37.48998 | 126.59821 | 3988 ft | 262 kts | 130° |
| 2026-05-05 01:02 | 37.47896 | 126.61649 | 3990 ft | 262 kts | 131° |
| 2026-05-05 01:03 | 37.46784 | 126.63466 | 3992 ft | 263 kts | 131° |
| 2026-05-05 01:03 | 37.45667 | 126.65280 | 3991 ft | 264 kts | 131° |
| 2026-05-05 01:03 | 37.44539 | 126.67106 | 3979 ft | 264 kts | 131° |
| 2026-05-05 01:03 | 37.43413 | 126.68931 | 3989 ft | 264 kts | 131° |
| 2026-05-05 01:04 | 37.42281 | 126.70765 | 3991 ft | 264 kts | 131° |
| 2026-05-05 01:04 | 37.40020 | 126.74417 | 3984 ft | 264 kts | 131° |
| 2026-05-05 01:04 | 37.38886 | 126.76237 | 3973 ft | 264 kts | 131° |
| 2026-05-05 01:05 | 37.37756 | 126.78049 | 3990 ft | 263 kts | 131° |
| 2026-05-05 01:05 | 37.36626 | 126.79863 | 3975 ft | 263 kts | 131° |
| 2026-05-05 01:05 | 37.35494 | 126.81676 | 3981 ft | 262 kts | 131° |
| 2026-05-05 01:05 | 37.34199 | 126.83244 | 3968 ft | 258 kts | 153° |
| 2026-05-05 01:06 | 37.32512 | 126.83873 | 3990 ft | 253 kts | 177° |
| 2026-05-05 01:06 | 37.30756 | 126.83966 | 3989 ft | 253 kts | 180° |
| 2026-05-05 01:06 | 37.28994 | 126.84003 | 3993 ft | 254 kts | 181° |
| 2026-05-05 01:06 | 37.27222 | 126.84030 | 3994 ft | 255 kts | 181° |
| 2026-05-05 01:07 | 37.25443 | 126.84051 | 3977 ft | 256 kts | 181° |
| 2026-05-05 01:07 | 37.23667 | 126.84071 | 3978 ft | 255 kts | 181° |
| 2026-05-05 01:07 | 37.21893 | 126.84087 | 3974 ft | 255 kts | 181° |
| 2026-05-05 01:07 | 37.20115 | 126.84103 | 3976 ft | 255 kts | 181° |
| 2026-05-05 01:08 | 37.18355 | 126.84117 | 3971 ft | 255 kts | 181° |
| 2026-05-05 01:08 | 37.16576 | 126.84130 | 3975 ft | 255 kts | 181° |
| 2026-05-05 01:08 | 37.14819 | 126.83920 | 3946 ft | 254 kts | 199° |
| 2026-05-05 01:08 | 37.13362 | 126.82739 | 3986 ft | 252 kts | 228° |
| 2026-05-05 01:09 | 37.12517 | 126.80818 | 3998 ft | 254 kts | 248° |
| 2026-05-05 01:09 | 37.11952 | 126.78711 | 3986 ft | 255 kts | 250° |
| 2026-05-05 01:09 | 37.11419 | 126.76588 | 3978 ft | 256 kts | 251° |
| 2026-05-05 01:09 | 37.10888 | 126.74453 | 3984 ft | 256 kts | 251° |
| 2026-05-05 01:10 | 37.10361 | 126.72317 | 3973 ft | 256 kts | 251° |
| 2026-05-05 01:10 | 37.09841 | 126.70184 | 3975 ft | 256 kts | 251° |
| 2026-05-05 01:10 | 37.09400 | 126.68032 | 3957 ft | 256 kts | 263° |
| 2026-05-05 01:10 | 37.09676 | 126.65913 | 3962 ft | 248 kts | 292° |
| 2026-05-05 01:11 | 37.10240 | 126.64662 | 3976 ft | 240 kts | 299° |
| 2026-05-05 01:11 | 37.11436 | 126.62416 | 3958 ft | 228 kts | 301° |
| 2026-05-05 01:11 | 37.12325 | 126.60779 | 3966 ft | 227 kts | 301° |
| 2026-05-05 01:11 | 37.13216 | 126.59151 | 3975 ft | 227 kts | 301° |
| 2026-05-05 01:12 | 37.14107 | 126.57525 | 3975 ft | 228 kts | 301° |
| 2026-05-05 01:12 | 37.15008 | 126.55880 | 3975 ft | 228 kts | 301° |
| 2026-05-05 01:12 | 37.15906 | 126.54242 | 3980 ft | 229 kts | 301° |
| 2026-05-05 01:12 | 37.16515 | 126.53131 | 3977 ft | 229 kts | 301° |
| 2026-05-05 01:13 | 37.17407 | 126.51502 | 3980 ft | 230 kts | 301° |
| 2026-05-05 01:13 | 37.18315 | 126.49843 | 3978 ft | 230 kts | 301° |
| 2026-05-05 01:13 | 37.19222 | 126.48195 | 4003 ft | 230 kts | 301° |
| 2026-05-05 01:13 | 37.20275 | 126.46680 | 3990 ft | 234 kts | 320° |
| 2026-05-05 01:14 | 37.21607 | 126.45508 | 4008 ft | 234 kts | 321° |
| 2026-05-05 01:14 | 37.22940 | 126.44318 | 4005 ft | 235 kts | 321° |
| 2026-05-05 01:14 | 37.24270 | 126.43126 | 4005 ft | 235 kts | 321° |
| 2026-05-05 01:14 | 37.25597 | 126.41934 | 4003 ft | 235 kts | 321° |
| 2026-05-05 01:15 | 37.26924 | 126.40741 | 4001 ft | 234 kts | 321° |
| 2026-05-05 01:15 | 37.28254 | 126.39547 | 4006 ft | 234 kts | 321° |
| 2026-05-05 01:15 | 37.29579 | 126.38356 | 4011 ft | 234 kts | 321° |
| 2026-05-05 01:15 | 37.30904 | 126.37165 | 4006 ft | 234 kts | 321° |
| 2026-05-05 01:16 | 37.32224 | 126.35976 | 4022 ft | 234 kts | 321° |
| 2026-05-05 01:16 | 37.33550 | 126.34789 | 4017 ft | 234 kts | 321° |
| 2026-05-05 01:16 | 37.34884 | 126.33599 | 4011 ft | 234 kts | 321° |
| 2026-05-05 01:16 | 37.36197 | 126.32433 | 4011 ft | 234 kts | 321° |
| 2026-05-05 01:17 | 37.37535 | 126.31243 | 4018 ft | 242 kts | 321° |
| 2026-05-05 01:17 | 37.38991 | 126.29933 | 4035 ft | 266 kts | 321° |
| 2026-05-05 01:17 | 37.40519 | 126.28549 | 4020 ft | 273 kts | 321° |
| 2026-05-05 01:17 | 37.42059 | 126.27150 | 4009 ft | 272 kts | 321° |
| 2026-05-05 01:18 | 37.43590 | 126.25759 | 3995 ft | 270 kts | 321° |
| 2026-05-05 01:18 | 37.45106 | 126.24384 | 3994 ft | 267 kts | 321° |
| 2026-05-05 01:18 | 37.46614 | 126.23021 | 4002 ft | 266 kts | 321° |
| 2026-05-05 01:18 | 37.48124 | 126.21662 | 4002 ft | 266 kts | 321° |
| 2026-05-05 01:19 | 37.49609 | 126.20329 | 3990 ft | 256 kts | 321° |
| 2026-05-05 01:19 | 37.51028 | 126.19060 | 3987 ft | 244 kts | 321° |
| 2026-05-05 01:19 | 37.52396 | 126.17841 | 3997 ft | 239 kts | 321° |
| 2026-05-05 01:19 | 37.53755 | 126.16629 | 4006 ft | 239 kts | 321° |
| 2026-05-05 01:20 | 37.55111 | 126.15417 | 4000 ft | 239 kts | 321° |
| 2026-05-05 01:20 | 37.56460 | 126.14214 | 4004 ft | 239 kts | 321° |
| 2026-05-05 01:20 | 37.57821 | 126.13002 | 4012 ft | 239 kts | 321° |
| 2026-05-05 01:20 | 37.59290 | 126.12060 | 3986 ft | 245 kts | 346° |
| 2026-05-05 01:21 | 37.61010 | 126.12156 | 4002 ft | 248 kts | 18° |
| 2026-05-05 01:21 | 37.62435 | 126.13324 | 4004 ft | 247 kts | 51° |
| 2026-05-05 01:21 | 37.63184 | 126.15198 | 4007 ft | 241 kts | 82° |
| 2026-05-05 01:21 | 37.63348 | 126.17291 | 4005 ft | 240 kts | 90° |
| 2026-05-05 01:22 | 37.63433 | 126.19390 | 3998 ft | 240 kts | 91° |
| 2026-05-05 01:22 | 37.63511 | 126.21498 | 3997 ft | 240 kts | 91° |
| 2026-05-05 01:22 | 37.63583 | 126.23611 | 3992 ft | 241 kts | 91° |
| 2026-05-05 01:22 | 37.63652 | 126.25726 | 3987 ft | 241 kts | 91° |
| 2026-05-05 01:23 | 37.63561 | 126.27821 | 3980 ft | 236 kts | 111° |
| 2026-05-05 01:23 | 37.62900 | 126.29682 | 4003 ft | 232 kts | 121° |
| 2026-05-05 01:23 | 37.62158 | 126.31486 | 3968 ft | 232 kts | 124° |
| 2026-05-05 01:23 | 37.61006 | 126.32981 | 3226 ft | 246 kts | 152° |
| 2026-05-05 01:24 | 37.59519 | 126.34132 | 2708 ft | 251 kts | 149° |
| 2026-05-05 01:24 | 37.58109 | 126.35367 | 2370 ft | 242 kts | 148° |
| 2026-05-05 01:24 | 37.56774 | 126.36560 | 2078 ft | 231 kts | 148° |
| 2026-05-05 01:24 | 37.55487 | 126.37709 | 1761 ft | 217 kts | 148° |
| 2026-05-05 01:25 | 37.54291 | 126.38771 | 1479 ft | 203 kts | 148° |
| 2026-05-05 01:25 | 37.53192 | 126.39749 | 1222 ft | 185 kts | 148° |
| 2026-05-05 01:25 | 37.52193 | 126.40637 | 999 ft | 166 kts | 148° |
| 2026-05-05 01:25 | 37.51311 | 126.41421 | 820 ft | 146 kts | 147° |
| 2026-05-05 01:26 | 37.50509 | 126.42121 | 579 ft | 136 kts | 146° |
| 2026-05-05 01:26 | 37.49782 | 126.42789 | 387 ft | 124 kts | 146° |
| 2026-05-05 01:26 | 37.49080 | 126.43411 | 230 ft | 128 kts | 146° |
| 2026-05-05 01:26 | 37.48332 | 126.44074 | 63 ft | 134 kts | 146° |
| 2026-05-05 01:27 | 37.47615 | 126.44708 | 31 ft | 116 kts | 143° |
| 2026-05-05 01:27 | 37.47078 | 126.45187 | 30 ft | 73 kts | 144° |
| 2026-05-05 01:27 | 37.46799 | 126.45385 | 31 ft | 34 kts | 166° |
| 2026-05-05 01:27 | 37.46660 | 126.45410 | 32 ft | 4 kts | 174° |
| 2026-05-05 01:28 | 37.46619 | 126.45415 | 32 ft | 0 kts | 175° |
| 2026-05-05 01:28 | 37.46618 | 126.45415 | 32 ft | 1 kts | 175° |
| 2026-05-05 01:28 | 37.46556 | 126.45424 | 32 ft | 12 kts | 172° |
| 2026-05-05 01:29 | 37.46478 | 126.45460 | 31 ft | 12 kts | 153° |
| 2026-05-05 01:29 | 37.46406 | 126.45508 | 32 ft | 12 kts | 165° |
| 2026-05-05 01:29 | 37.46323 | 126.45419 | 30 ft | 18 kts | 236° |
| 2026-05-05 01:29 | 37.46262 | 126.45311 | 32 ft | 12 kts | 234° |
| 2026-05-05 01:30 | 37.46223 | 126.45241 | 32 ft | 9 kts | 234° |
| 2026-05-05 01:30 | 37.46196 | 126.45189 | 32 ft | 7 kts | 247° |
| 2026-05-05 01:30 | 37.46193 | 126.45152 | 32 ft | 9 kts | 281° |
| 2026-05-05 01:30 | 37.46261 | 126.45074 | 32 ft | 16 kts | 325° |
| 2026-05-05 01:31 | 37.46354 | 126.44992 | 31 ft | 16 kts | 325° |
| 2026-05-05 01:31 | 37.46447 | 126.44910 | 32 ft | 18 kts | 324° |
| 2026-05-05 01:31 | 37.46549 | 126.44818 | 32 ft | 18 kts | 324° |
| 2026-05-05 01:31 | 37.46650 | 126.44729 | 32 ft | 17 kts | 324° |
| 2026-05-05 01:32 | 37.46716 | 126.44633 | 32 ft | 13 kts | 261° |
| 2026-05-05 01:32 | 37.46670 | 126.44539 | 30 ft | 13 kts | 235° |
| 2026-05-05 01:32 | 37.46622 | 126.44449 | 32 ft | 12 kts | 243° |
| 2026-05-05 01:32 | 37.46578 | 126.44359 | 32 ft | 12 kts | 234° |
| 2026-05-05 01:33 | 37.46523 | 126.44260 | 32 ft | 17 kts | 234° |
| 2026-05-05 01:33 | 37.46442 | 126.44118 | 32 ft | 20 kts | 234° |
| 2026-05-05 01:33 | 37.46453 | 126.44000 | 31 ft | 13 kts | 322° |
| 2026-05-05 01:33 | 37.46526 | 126.43935 | 30 ft | 13 kts | 324° |
| 2026-05-05 01:34 | 37.46598 | 126.43873 | 30 ft | 12 kts | 325° |
| 2026-05-05 01:34 | 37.46653 | 126.43798 | 32 ft | 11 kts | 275° |
| 2026-05-05 01:34 | 37.46624 | 126.43715 | 32 ft | 10 kts | 236° |
| 2026-05-05 01:34 | 37.46644 | 126.43663 | 32 ft | 9 kts | 326° |
| 2026-05-05 01:35 | 37.46686 | 126.43626 | 32 ft | 3 kts | 324° |
| 2026-05-05 01:35 | 37.46687 | 126.43626 | 32 ft | 0 kts | 324° |
| 2026-05-05 01:35 | 37.46692 | 126.43621 | 32 ft | 0 kts | 326° |